Time;durP1;ratioP1;P1;durP2;ratioP2;P2;SDS_P1;SDS_P2;PMS_P1;PMS_P2;Temp;Humidity;BMP_temperature;BMP_pressure;BME280_temperature;BME280_humidity;BME280_pressure;Samples;Min_cycle;Max_cycle;Signal;HPM_P1;HPM_P2
2023/04/30 00:02:02;;;;;;;2.50;0.90;;;;;;;;;;4960647;28;20055;-58
2023/04/30 00:04:31;;;;;;;1.65;0.57;;;;;;;;;;4960644;28;20051;-60
2023/04/30 00:06:59;;;;;;;1.20;0.63;;;;;;;;;;4963373;28;20038;-59
2023/04/30 00:09:29;;;;;;;1.45;0.93;;;;;;;;;;4960507;28;20134;-59
2023/04/30 00:11:58;;;;;;;0.90;0.73;;;;;;;;;;4960802;28;20051;-68
2023/04/30 00:14:26;;;;;;;1.73;1.13;;;;;;;;;;4959645;28;20054;-59
2023/04/30 00:16:55;;;;;;;1.75;1.00;;;;;;;;;;4959507;28;20058;-60
2023/04/30 00:19:23;;;;;;;0.70;0.70;;;;;;;;;;4960373;28;20057;-63
2023/04/30 00:21:52;;;;;;;1.98;0.70;;;;;;;;;;4960633;28;20130;-62
2023/04/30 00:24:20;;;;;;;1.77;1.23;;;;;;;;;;4961144;28;20073;-62
2023/04/30 00:26:50;;;;;;;2.47;1.00;;;;;;;;;;4960097;28;20427;-58
2023/04/30 00:29:18;;;;;;;1.67;0.60;;;;;;;;;;4961191;28;20046;-66
2023/04/30 00:31:46;;;;;;;2.40;1.63;;;;;;;;;;4961103;28;20133;-60
2023/04/30 00:34:15;;;;;;;1.15;0.73;;;;;;;;;;4961357;28;20055;-60
2023/04/30 00:36:43;;;;;;;1.42;0.80;;;;;;;;;;4959523;28;20488;-59
2023/04/30 00:39:12;;;;;;;2.53;0.70;;;;;;;;;;4961018;28;20047;-58
2023/04/30 00:41:40;;;;;;;2.33;1.17;;;;;;;;;;4961162;28;20061;-62
2023/04/30 00:44:10;;;;;;;1.23;0.70;;;;;;;;;;4960171;28;20178;-60
2023/04/30 00:46:38;;;;;;;2.58;1.30;;;;;;;;;;4961076;28;20404;-64
2023/04/30 00:49:07;;;;;;;2.67;0.75;;;;;;;;;;4961386;28;20081;-61
2023/04/30 00:51:36;;;;;;;0.73;0.68;;;;;;;;;;4956864;28;20050;-63
2023/04/30 00:54:04;;;;;;;1.52;0.70;;;;;;;;;;4957932;28;20051;-59
2023/04/30 00:56:33;;;;;;;2.38;0.93;;;;;;;;;;4959515;28;20053;-63
2023/04/30 00:59:01;;;;;;;1.58;0.65;;;;;;;;;;4961171;28;20051;-61
2023/04/30 01:01:31;;;;;;;1.38;0.82;;;;;;;;;;4956583;28;20051;-62
2023/04/30 01:03:59;;;;;;;1.77;0.82;;;;;;;;;;5001189;23;20061;-68
2023/04/30 01:06:28;;;;;;;3.72;1.30;;;;;;;;;;5053624;28;20115;-69
2023/04/30 01:08:57;;;;;;;1.25;0.80;;;;;;;;;;5053845;28;20490;-70
2023/04/30 01:11:29;;;;;;;1.92;0.75;;;;;;;;;;5053893;28;20065;-67
2023/04/30 01:14:01;;;;;;;2.92;1.02;;;;;;;;;;5054320;28;20053;-70
2023/04/30 01:16:34;;;;;;;0.88;0.88;;;;;;;;;;5053552;28;20088;-70
2023/04/30 01:19:06;;;;;;;1.73;1.20;;;;;;;;;;5054115;28;20048;-69
2023/04/30 01:21:35;;;;;;;1.92;1.42;;;;;;;;;;5053212;28;20413;-70
2023/04/30 01:24:14;;;;;;;1.80;0.88;;;;;;;;;;5053354;28;20080;-69
2023/04/30 01:26:49;;;;;;;1.92;0.80;;;;;;;;;;5053783;28;20084;-69
2023/04/30 01:29:20;;;;;;;1.58;0.60;;;;;;;;;;5053416;28;20131;-69
2023/04/30 01:31:51;;;;;;;2.38;1.20;;;;;;;;;;5052997;28;20103;-69
2023/04/30 01:34:19;;;;;;;2.03;0.80;;;;;;;;;;5053843;28;20056;-67
2023/04/30 01:36:54;;;;;;;1.00;0.75;;;;;;;;;;5048082;28;20049;-67
2023/04/30 01:39:39;;;;;;;2.08;0.75;;;;;;;;;;5039174;28;20045;-67
2023/04/30 01:42:09;;;;;;;1.52;0.70;;;;;;;;;;5042866;28;20446;-68
2023/04/30 01:44:51;;;;;;;5.22;0.85;;;;;;;;;;5041816;28;20041;-65
2023/04/30 01:47:23;;;;;;;1.88;0.88;;;;;;;;;;5036242;28;20453;-67
2023/04/30 01:49:55;;;;;;;1.90;0.75;;;;;;;;;;5039129;28;20049;-65
2023/04/30 01:52:30;;;;;;;3.00;1.30;;;;;;;;;;5040763;28;20052;-67
2023/04/30 01:55:01;;;;;;;0.95;0.47;;;;;;;;;;5040570;28;20144;-67
2023/04/30 01:57:31;;;;;;;3.13;1.20;;;;;;;;;;5039337;28;20076;-67
2023/04/30 02:00:00;;;;;;;2.70;1.05;;;;;;;;;;5040204;28;20048;-69
2023/04/30 02:02:29;;;;;;;3.15;1.30;;;;;;;;;;5039517;28;20045;-67
2023/04/30 02:04:57;;;;;;;2.75;0.90;;;;;;;;;;5036593;28;20467;-68
2023/04/30 02:07:33;;;;;;;1.50;0.80;;;;;;;;;;5039760;28;20079;-68
2023/04/30 02:10:01;;;;;;;2.75;1.17;;;;;;;;;;5038564;28;20489;-68
2023/04/30 02:12:30;;;;;;;1.45;0.80;;;;;;;;;;5040479;28;20126;-69
2023/04/30 02:14:58;;;;;;;1.25;0.70;;;;;;;;;;5040548;28;20442;-69
2023/04/30 02:17:28;;;;;;;0.80;0.63;;;;;;;;;;5039599;28;20478;-69
2023/04/30 02:19:56;;;;;;;1.33;1.13;;;;;;;;;;5037896;28;20050;-69
2023/04/30 02:22:24;;;;;;;0.75;0.57;;;;;;;;;;5037415;28;20044;-69
2023/04/30 02:24:54;;;;;;;2.05;1.30;;;;;;;;;;5038530;28;20056;-69
2023/04/30 02:27:24;;;;;;;0.75;0.70;;;;;;;;;;5038332;28;20049;-69
2023/04/30 02:29:52;;;;;;;2.70;0.77;;;;;;;;;;5039184;28;20175;-68
2023/04/30 02:32:21;;;;;;;1.75;0.90;;;;;;;;;;5039195;28;20060;-69
2023/04/30 02:34:51;;;;;;;3.45;0.80;;;;;;;;;;5038270;28;20048;-69
2023/04/30 02:37:19;;;;;;;2.00;0.95;;;;;;;;;;5037594;28;20045;-69
2023/04/30 02:39:48;;;;;;;2.00;1.00;;;;;;;;;;5040577;28;20045;-69
2023/04/30 02:42:16;;;;;;;1.75;0.70;;;;;;;;;;5036703;28;20083;-69
2023/04/30 02:44:44;;;;;;;1.40;0.77;;;;;;;;;;5037364;28;20142;-67
2023/04/30 02:47:13;;;;;;;4.80;0.80;;;;;;;;;;5041004;28;20052;-69
2023/04/30 02:49:41;;;;;;;2.13;0.68;;;;;;;;;;5039484;28;20063;-70
2023/04/30 02:52:11;;;;;;;2.72;1.48;;;;;;;;;;5040081;28;20045;-69
2023/04/30 02:54:39;;;;;;;5.22;1.35;;;;;;;;;;5036705;28;20045;-67
2023/04/30 02:57:07;;;;;;;1.80;1.08;;;;;;;;;;5039678;28;20357;-69
2023/04/30 02:59:37;;;;;;;1.20;1.00;;;;;;;;;;5036712;28;20257;-69
2023/04/30 03:02:05;;;;;;;2.20;1.15;;;;;;;;;;5039752;28;20053;-69
2023/04/30 03:04:34;;;;;;;4.13;1.05;;;;;;;;;;5039076;28;20140;-68
2023/04/30 03:07:02;;;;;;;6.75;1.00;;;;;;;;;;5037903;28;20060;-69
2023/04/30 03:09:32;;;;;;;4.55;0.80;;;;;;;;;;5038222;28;20042;-69
2023/04/30 03:12:01;;;;;;;8.98;1.10;;;;;;;;;;5036364;28;20057;-69
2023/04/30 03:14:29;;;;;;;2.95;1.45;;;;;;;;;;5038343;28;20063;-69
2023/04/30 03:16:58;;;;;;;2.00;1.35;;;;;;;;;;5039099;28;20501;-69
2023/04/30 03:19:26;;;;;;;3.00;0.95;;;;;;;;;;5037847;28;20090;-68
2023/04/30 03:21:55;;;;;;;3.17;1.33;;;;;;;;;;5039307;28;20945;-69
2023/04/30 03:24:23;;;;;;;3.17;1.50;;;;;;;;;;5035704;28;20139;-69
2023/04/30 03:26:53;;;;;;;1.73;1.15;;;;;;;;;;5036952;28;20045;-67
2023/04/30 03:29:21;;;;;;;2.90;1.00;;;;;;;;;;5034789;28;20394;-68
2023/04/30 03:31:50;;;;;;;3.03;1.45;;;;;;;;;;5039274;28;20049;-69
2023/04/30 03:34:18;;;;;;;4.95;1.40;;;;;;;;;;5039600;28;20560;-69
2023/04/30 03:36:46;;;;;;;2.20;1.23;;;;;;;;;;5038019;28;20056;-69
2023/04/30 03:39:15;;;;;;;1.88;0.80;;;;;;;;;;5038692;28;20393;-68
2023/04/30 03:41:44;;;;;;;4.03;1.73;;;;;;;;;;5034816;28;20417;-69
2023/04/30 03:44:14;;;;;;;3.22;1.15;;;;;;;;;;5037536;28;20140;-69
2023/04/30 03:46:43;;;;;;;3.05;1.33;;;;;;;;;;5035886;28;20566;-69
2023/04/30 03:49:12;;;;;;;2.08;1.27;;;;;;;;;;5040837;28;20128;-68
2023/04/30 03:51:41;;;;;;;2.15;1.08;;;;;;;;;;5036036;28;20061;-69
2023/04/30 03:54:10;;;;;;;3.22;1.55;;;;;;;;;;5038153;28;20040;-69
2023/04/30 03:56:38;;;;;;;2.83;0.95;;;;;;;;;;5037344;28;20463;-69
2023/04/30 03:59:07;;;;;;;2.70;1.08;;;;;;;;;;5039487;28;20740;-69
2023/04/30 04:01:36;;;;;;;2.60;1.05;;;;;;;;;;5036056;28;20045;-69
2023/04/30 04:04:05;;;;;;;2.88;1.08;;;;;;;;;;5038260;28;20072;-69
2023/04/30 04:06:33;;;;;;;3.15;0.88;;;;;;;;;;5036825;28;20114;-69
2023/04/30 04:09:03;;;;;;;1.17;0.70;;;;;;;;;;5039849;28;20049;-69
2023/04/30 04:11:31;;;;;;;4.25;1.27;;;;;;;;;;5036891;28;20045;-69
2023/04/30 04:13:59;;;;;;;2.90;1.15;;;;;;;;;;5038083;28;20322;-67
2023/04/30 04:16:28;;;;;;;3.75;1.23;;;;;;;;;;5036746;28;20490;-69
2023/04/30 04:18:57;;;;;;;2.92;1.23;;;;;;;;;;5036736;28;20076;-69
2023/04/30 04:21:26;;;;;;;4.03;1.55;;;;;;;;;;5036938;28;20521;-69
2023/04/30 04:23:54;;;;;;;3.85;1.48;;;;;;;;;;5037941;28;20049;-69
2023/04/30 04:26:24;;;;;;;2.80;1.25;;;;;;;;;;5037387;28;20045;-68
2023/04/30 04:28:52;;;;;;;2.05;0.80;;;;;;;;;;5035081;28;20460;-68
2023/04/30 04:31:21;;;;;;;0.90;0.80;;;;;;;;;;5039597;28;20075;-69
2023/04/30 04:33:56;;;;;;;3.25;0.73;;;;;;;;;;5037747;28;20048;-69
2023/04/30 04:36:27;;;;;;;2.25;1.10;;;;;;;;;;5043198;28;20110;-69
2023/04/30 04:38:56;;;;;;;1.17;0.80;;;;;;;;;;5039726;28;20136;-69
2023/04/30 04:41:25;;;;;;;2.60;1.30;;;;;;;;;;5042542;28;20045;-67
2023/04/30 04:43:53;;;;;;;3.50;1.40;;;;;;;;;;5041251;28;20049;-69
2023/04/30 04:46:22;;;;;;;3.42;1.25;;;;;;;;;;5040227;28;20041;-69
2023/04/30 04:48:50;;;;;;;2.03;1.25;;;;;;;;;;5040649;28;20037;-69
2023/04/30 04:51:19;;;;;;;1.35;1.10;;;;;;;;;;5038684;28;20055;-68
2023/04/30 04:53:48;;;;;;;2.83;1.35;;;;;;;;;;5041364;28;20069;-68
2023/04/30 04:56:17;;;;;;;2.60;0.98;;;;;;;;;;5040410;28;20053;-69
2023/04/30 04:58:46;;;;;;;2.55;1.70;;;;;;;;;;5042667;28;20045;-69
2023/04/30 05:01:14;;;;;;;0.98;0.70;;;;;;;;;;5039905;28;20140;-70
2023/04/30 05:03:43;;;;;;;2.95;1.30;;;;;;;;;;5039435;28;20049;-69
2023/04/30 05:06:11;;;;;;;2.67;1.25;;;;;;;;;;5039413;28;20440;-69
2023/04/30 05:08:40;;;;;;;2.25;0.93;;;;;;;;;;5039848;28;20060;-67
2023/04/30 05:11:09;;;;;;;2.08;1.15;;;;;;;;;;5041373;28;21136;-69
2023/04/30 05:13:39;;;;;;;1.73;1.23;;;;;;;;;;5039189;28;20059;-69
2023/04/30 05:16:07;;;;;;;2.38;1.20;;;;;;;;;;5040217;28;20494;-67
2023/04/30 05:18:35;;;;;;;2.50;1.00;;;;;;;;;;5040781;28;20049;-69
2023/04/30 05:21:04;;;;;;;4.00;2.10;;;;;;;;;;5038112;28;20071;-71
2023/04/30 05:23:32;;;;;;;3.42;1.52;;;;;;;;;;5041825;28;20060;-71
2023/04/30 05:26:01;;;;;;;2.90;1.48;;;;;;;;;;5041546;28;20063;-70
2023/04/30 05:28:30;;;;;;;2.65;1.02;;;;;;;;;;5039640;28;20116;-70
2023/04/30 05:30:59;;;;;;;3.42;1.38;;;;;;;;;;5040511;28;20516;-69
2023/04/30 05:33:27;;;;;;;6.00;1.25;;;;;;;;;;5041032;28;20538;-70
2023/04/30 05:35:55;;;;;;;1.85;0.93;;;;;;;;;;5041620;28;20053;-69
2023/04/30 05:38:24;;;;;;;2.97;1.80;;;;;;;;;;5038528;28;20059;-69
2023/04/30 05:40:52;;;;;;;2.50;1.15;;;;;;;;;;5038991;28;20049;-69
2023/04/30 05:43:20;;;;;;;2.15;1.15;;;;;;;;;;5039792;28;20052;-68
2023/04/30 05:45:50;;;;;;;3.50;1.30;;;;;;;;;;5038356;28;20053;-70
2023/04/30 05:48:18;;;;;;;3.55;1.30;;;;;;;;;;5039299;28;20500;-70
2023/04/30 05:50:47;;;;;;;3.35;1.52;;;;;;;;;;5040890;28;20052;-67
2023/04/30 05:53:15;;;;;;;3.28;1.73;;;;;;;;;;5038119;28;20136;-67
2023/04/30 05:55:43;;;;;;;2.05;1.10;;;;;;;;;;5038132;28;20504;-69
2023/04/30 05:58:12;;;;;;;4.57;1.65;;;;;;;;;;5040774;28;20045;-70
2023/04/30 06:00:40;;;;;;;1.42;1.02;;;;;;;;;;5038799;28;20041;-68
2023/04/30 06:03:10;;;;;;;2.47;1.17;;;;;;;;;;5037648;28;20049;-70
2023/04/30 06:05:40;;;;;;;3.80;1.40;;;;;;;;;;5038674;28;20045;-70
2023/04/30 06:08:08;;;;;;;3.10;1.77;;;;;;;;;;5035614;28;20184;-69
2023/04/30 06:10:37;;;;;;;5.28;0.95;;;;;;;;;;5038888;28;20044;-71
2023/04/30 06:13:06;;;;;;;1.48;0.82;;;;;;;;;;5038207;28;20045;-68
2023/04/30 06:15:35;;;;;;;2.28;0.90;;;;;;;;;;5038592;28;20828;-70
2023/04/30 06:18:03;;;;;;;3.00;0.93;;;;;;;;;;5038149;28;20045;-70
2023/04/30 06:20:33;;;;;;;4.95;1.73;;;;;;;;;;5040025;28;20045;-69
2023/04/30 06:23:02;;;;;;;3.92;1.90;;;;;;;;;;5039062;28;20059;-70
2023/04/30 06:25:31;;;;;;;2.60;1.50;;;;;;;;;;5039094;28;20045;-69
2023/04/30 06:28:00;;;;;;;4.13;1.30;;;;;;;;;;5039030;28;20071;-70
2023/04/30 06:30:30;;;;;;;4.30;1.58;;;;;;;;;;5040476;28;20052;-69
2023/04/30 06:32:58;;;;;;;3.10;1.80;;;;;;;;;;5039423;28;20111;-70
2023/04/30 06:35:27;;;;;;;2.22;1.10;;;;;;;;;;5040895;28;20426;-70
2023/04/30 06:37:56;;;;;;;4.28;1.10;;;;;;;;;;5037470;28;20139;-69
2023/04/30 06:40:24;;;;;;;2.55;1.58;;;;;;;;;;5041496;28;20045;-70
2023/04/30 06:42:53;;;;;;;2.10;1.30;;;;;;;;;;5038647;28;20106;-68
2023/04/30 06:45:21;;;;;;;1.35;0.95;;;;;;;;;;5041953;28;20527;-70
2023/04/30 06:47:50;;;;;;;1.27;1.10;;;;;;;;;;5039816;28;20049;-70
2023/04/30 06:50:20;;;;;;;4.15;1.35;;;;;;;;;;5043359;28;20040;-67
2023/04/30 06:52:48;;;;;;;1.80;1.23;;;;;;;;;;5035452;28;20049;-70
2023/04/30 06:55:18;;;;;;;3.30;1.73;;;;;;;;;;5038510;28;20489;-70
2023/04/30 06:57:46;;;;;;;4.80;2.08;;;;;;;;;;5036986;28;20130;-70
2023/04/30 07:00:15;;;;;;;4.53;1.45;;;;;;;;;;5040036;28;20053;-70
2023/04/30 07:02:46;;;;;;;2.30;1.38;;;;;;;;;;5039215;28;20037;-69
2023/04/30 07:05:15;;;;;;;3.30;1.60;;;;;;;;;;5037934;28;20060;-70
2023/04/30 07:07:43;;;;;;;2.38;1.23;;;;;;;;;;5035661;28;20048;-67
2023/04/30 07:10:12;;;;;;;3.00;1.60;;;;;;;;;;5040738;28;20522;-70
2023/04/30 07:12:42;;;;;;;1.40;0.98;;;;;;;;;;5038725;28;20777;-71
2023/04/30 07:15:10;;;;;;;2.15;1.73;;;;;;;;;;5040888;28;20045;-68
2023/04/30 07:17:40;;;;;;;2.70;1.58;;;;;;;;;;5034298;28;20048;-69
2023/04/30 07:20:09;;;;;;;3.90;2.00;;;;;;;;;;5039304;28;20048;-67
2023/04/30 07:22:38;;;;;;;5.13;1.77;;;;;;;;;;5037768;28;20060;-70
2023/04/30 07:25:06;;;;;;;2.10;1.52;;;;;;;;;;5039092;28;20144;-70
2023/04/30 07:27:35;;;;;;;2.72;1.23;;;;;;;;;;5037857;28;20139;-70
2023/04/30 07:30:05;;;;;;;4.15;1.60;;;;;;;;;;5038310;28;20163;-69
2023/04/30 07:32:35;;;;;;;0.60;0.60;;;;;;;;;;5039120;28;20146;-69
2023/04/30 07:35:03;;;;;;;1.25;0.95;;;;;;;;;;5037423;28;20873;-70
2023/04/30 07:37:32;;;;;;;1.88;1.27;;;;;;;;;;5037021;28;20163;-70
2023/04/30 07:40:03;;;;;;;2.55;1.75;;;;;;;;;;5037904;28;20052;-70
2023/04/30 07:42:31;;;;;;;2.83;1.80;;;;;;;;;;5039780;28;20051;-71
2023/04/30 07:44:59;;;;;;;1.52;0.75;;;;;;;;;;5038373;28;20410;-67
2023/04/30 07:47:30;;;;;;;2.20;0.80;;;;;;;;;;5035826;28;20140;-69
2023/04/30 07:49:58;;;;;;;1.92;1.20;;;;;;;;;;5037035;28;20127;-69
2023/04/30 07:52:26;;;;;;;1.75;0.82;;;;;;;;;;5035960;28;20063;-67
2023/04/30 07:54:55;;;;;;;2.05;1.05;;;;;;;;;;5037247;28;20401;-69
2023/04/30 07:57:25;;;;;;;3.10;1.42;;;;;;;;;;5035991;28;20136;-68
2023/04/30 07:59:53;;;;;;;1.77;1.58;;;;;;;;;;5037669;28;20721;-67
2023/04/30 08:02:22;;;;;;;3.03;1.40;;;;;;;;;;5038492;28;20148;-69
2023/04/30 08:04:52;;;;;;;2.08;1.48;;;;;;;;;;5037535;28;20057;-69
2023/04/30 08:07:21;;;;;;;4.57;1.10;;;;;;;;;;5039120;28;20079;-67
2023/04/30 08:09:49;;;;;;;3.67;1.70;;;;;;;;;;5039955;28;20068;-69
2023/04/30 08:12:17;;;;;;;5.68;1.50;;;;;;;;;;5040921;28;20482;-68
2023/04/30 08:14:46;;;;;;;2.90;1.45;;;;;;;;;;5041347;28;20572;-67
2023/04/30 08:17:14;;;;;;;2.70;1.70;;;;;;;;;;5041673;28;20072;-69
2023/04/30 08:19:42;;;;;;;3.80;1.73;;;;;;;;;;5040595;28;20057;-69
2023/04/30 08:22:12;;;;;;;2.05;1.50;;;;;;;;;;5043666;28;20045;-71
2023/04/30 08:24:40;;;;;;;3.10;1.48;;;;;;;;;;5039034;28;20049;-70
2023/04/30 08:27:09;;;;;;;1.92;1.08;;;;;;;;;;5043308;28;20044;-69
2023/04/30 08:29:37;;;;;;;2.72;1.20;;;;;;;;;;5040728;28;20056;-70
2023/04/30 08:32:05;;;;;;;3.15;1.48;;;;;;;;;;5041886;28;20052;-70
2023/04/30 08:34:35;;;;;;;1.67;1.23;;;;;;;;;;5040977;28;20045;-69
2023/04/30 08:37:03;;;;;;;2.75;0.98;;;;;;;;;;5041384;28;20548;-67
2023/04/30 08:39:33;;;;;;;4.60;1.08;;;;;;;;;;5040463;28;20059;-71
2023/04/30 08:42:02;;;;;;;3.45;1.70;;;;;;;;;;5037617;28;20123;-69
2023/04/30 08:44:32;;;;;;;2.97;1.20;;;;;;;;;;5043696;28;20085;-68
2023/04/30 08:47:01;;;;;;;2.25;1.35;;;;;;;;;;5041761;28;20045;-69
2023/04/30 08:49:31;;;;;;;2.13;0.98;;;;;;;;;;5044120;28;20059;-68
2023/04/30 08:52:01;;;;;;;4.53;1.40;;;;;;;;;;5042220;28;20056;-68
2023/04/30 08:54:31;;;;;;;1.77;1.17;;;;;;;;;;5041390;28;20049;-70
2023/04/30 08:57:03;;;;;;;2.50;0.95;;;;;;;;;;5040738;28;20135;-68
2023/04/30 08:59:32;;;;;;;1.77;1.15;;;;;;;;;;5040511;28;20045;-69
2023/04/30 09:02:01;;;;;;;1.27;0.60;;;;;;;;;;5041513;28;20418;-70
2023/04/30 09:04:30;;;;;;;1.25;0.93;;;;;;;;;;5041211;28;20048;-69
2023/04/30 09:06:58;;;;;;;2.92;0.80;;;;;;;;;;5039471;28;20047;-69
2023/04/30 09:09:29;;;;;;;1.17;0.80;;;;;;;;;;5040333;28;20091;-69
2023/04/30 09:12:13;;;;;;;2.35;0.75;;;;;;;;;;5040589;28;20048;-70
2023/04/30 09:15:00;;;;;;;1.80;1.08;;;;;;;;;;5037746;28;20045;-68
2023/04/30 09:17:28;;;;;;;1.10;0.70;;;;;;;;;;5037350;28;20061;-69
2023/04/30 09:20:07;;;;;;;2.45;2.10;;;;;;;;;;5038965;28;20061;-67
2023/04/30 09:22:36;;;;;;;1.52;0.75;;;;;;;;;;5040018;28;20135;-67
2023/04/30 09:25:05;;;;;;;2.83;1.02;;;;;;;;;;5039207;28;20122;-70
2023/04/30 09:27:33;;;;;;;6.80;1.20;;;;;;;;;;5032942;28;20136;-69
2023/04/30 09:30:03;;;;;;;2.42;1.00;;;;;;;;;;5041384;28;20059;-69
2023/04/30 09:32:32;;;;;;;1.15;0.80;;;;;;;;;;5038902;28;20482;-68
2023/04/30 09:35:00;;;;;;;1.25;0.73;;;;;;;;;;5038702;28;20057;-69
2023/04/30 09:37:36;;;;;;;1.98;1.35;;;;;;;;;;5042433;28;20056;-69
2023/04/30 09:40:04;;;;;;;1.85;1.00;;;;;;;;;;5036808;28;20049;-69
2023/04/30 09:42:33;;;;;;;1.98;1.10;;;;;;;;;;5036374;28;20055;-68
2023/04/30 09:45:05;;;;;;;3.90;1.35;;;;;;;;;;5034057;28;20415;-69
2023/04/30 09:47:34;;;;;;;2.85;1.17;;;;;;;;;;5036910;28;20425;-69
2023/04/30 09:50:03;;;;;;;2.35;1.08;;;;;;;;;;5036804;28;20052;-69
2023/04/30 09:52:31;;;;;;;2.13;1.05;;;;;;;;;;5034831;28;20183;-68
2023/04/30 09:54:59;;;;;;;0.95;0.95;;;;;;;;;;5039822;28;20052;-68
2023/04/30 09:57:35;;;;;;;1.02;0.63;;;;;;;;;;5034478;28;20061;-68
2023/04/30 10:00:06;;;;;;;1.73;0.80;;;;;;;;;;5036839;28;20053;-70
2023/04/30 10:02:34;;;;;;;1.33;0.85;;;;;;;;;;5037635;28;20045;-67
2023/04/30 10:05:03;;;;;;;0.90;0.80;;;;;;;;;;5037390;28;20114;-69
2023/04/30 10:07:33;;;;;;;4.93;1.20;;;;;;;;;;5038441;28;20057;-70
2023/04/30 10:10:04;;;;;;;1.80;0.80;;;;;;;;;;5036275;28;20045;-69
2023/04/30 10:12:35;;;;;;;1.90;1.02;;;;;;;;;;5040106;28;20527;-69
2023/04/30 10:15:07;;;;;;;3.67;0.98;;;;;;;;;;5038907;28;20060;-69
2023/04/30 10:17:39;;;;;;;2.22;0.70;;;;;;;;;;5036018;28;20079;-69
2023/04/30 10:20:10;;;;;;;0.85;0.70;;;;;;;;;;5039620;28;20783;-69
2023/04/30 10:22:40;;;;;;;1.50;0.90;;;;;;;;;;5035605;28;20466;-69
2023/04/30 10:25:10;;;;;;;1.88;0.90;;;;;;;;;;5036264;28;20041;-69
2023/04/30 10:27:38;;;;;;;2.95;1.00;;;;;;;;;;5035046;28;20072;-68
2023/04/30 10:30:10;;;;;;;0.88;0.70;;;;;;;;;;5036125;28;20445;-68
2023/04/30 10:32:42;;;;;;;2.30;0.90;;;;;;;;;;5036494;28;20261;-68
2023/04/30 10:35:13;;;;;;;0.80;0.80;;;;;;;;;;5037296;28;20048;-69
2023/04/30 10:37:44;;;;;;;1.23;0.77;;;;;;;;;;5035223;28;20045;-70
2023/04/30 10:40:13;;;;;;;1.17;0.70;;;;;;;;;;5033762;28;20053;-68
2023/04/30 10:42:46;;;;;;;2.65;1.15;;;;;;;;;;5034817;28;20136;-70
2023/04/30 10:45:19;;;;;;;1.73;0.80;;;;;;;;;;5035813;28;20191;-67
2023/04/30 10:47:47;;;;;;;2.72;0.93;;;;;;;;;;5038113;28;20167;-67
2023/04/30 10:50:16;;;;;;;2.75;1.48;;;;;;;;;;5033376;28;20083;-68
2023/04/30 10:52:44;;;;;;;1.33;0.82;;;;;;;;;;5035346;28;20818;-69
2023/04/30 10:55:18;;;;;;;6.60;0.85;;;;;;;;;;5037733;28;20053;-69
2023/04/30 10:57:47;;;;;;;1.33;0.80;;;;;;;;;;5035996;28;20047;-68
2023/04/30 11:00:21;;;;;;;1.05;0.95;;;;;;;;;;5038094;28;20052;-68
2023/04/30 11:02:49;;;;;;;1.13;0.90;;;;;;;;;;5036498;28;20418;-68
2023/04/30 11:05:18;;;;;;;1.50;1.40;;;;;;;;;;5038613;28;20061;-68
2023/04/30 11:07:48;;;;;;;0.95;0.73;;;;;;;;;;5036725;28;20048;-69
2023/04/30 11:10:17;;;;;;;1.30;0.68;;;;;;;;;;5034475;28;20148;-69
2023/04/30 11:12:49;;;;;;;1.73;0.60;;;;;;;;;;5030684;28;20100;-68
2023/04/30 11:15:18;;;;;;;0.90;0.60;;;;;;;;;;5036277;28;20151;-69
2023/04/30 11:17:49;;;;;;;1.10;0.45;;;;;;;;;;5036848;28;20057;-67
2023/04/30 11:20:20;;;;;;;1.17;0.75;;;;;;;;;;5037745;28;20056;-69
2023/04/30 11:22:48;;;;;;;1.20;0.70;;;;;;;;;;5035909;28;20462;-68
2023/04/30 11:25:19;;;;;;;1.65;0.80;;;;;;;;;;5034374;28;20041;-66
2023/04/30 11:27:48;;;;;;;3.80;1.73;;;;;;;;;;5037585;28;20049;-66
2023/04/30 11:30:17;;;;;;;11.30;4.35;;;;;;;;;;5031958;28;20052;-67
2023/04/30 11:32:46;;;;;;;5.55;2.67;;;;;;;;;;5034955;28;20645;-66
2023/04/30 11:35:18;;;;;;;2.78;1.25;;;;;;;;;;5032931;28;20544;-66
2023/04/30 11:37:48;;;;;;;2.50;0.85;;;;;;;;;;5034792;28;20444;-66
2023/04/30 11:40:17;;;;;;;1.60;1.20;;;;;;;;;;5034472;28;20401;-67
2023/04/30 11:42:47;;;;;;;1.20;1.05;;;;;;;;;;5037954;28;20041;-66
2023/04/30 11:45:19;;;;;;;7.57;1.58;;;;;;;;;;5037282;28;20453;-65
2023/04/30 11:47:49;;;;;;;1.25;1.02;;;;;;;;;;5040066;28;20055;-65
2023/04/30 11:50:21;;;;;;;1.33;0.82;;;;;;;;;;5042671;28;20048;-65
2023/04/30 11:52:51;;;;;;;1.02;0.90;;;;;;;;;;5041964;28;20130;-66
2023/04/30 11:55:20;;;;;;;1.77;0.98;;;;;;;;;;5037532;28;20588;-67
2023/04/30 11:57:49;;;;;;;1.85;0.80;;;;;;;;;;5042746;28;20720;-66
2023/04/30 12:00:19;;;;;;;0.80;0.70;;;;;;;;;;5039333;28;20457;-67
2023/04/30 12:02:48;;;;;;;4.68;1.10;;;;;;;;;;5039277;28;20485;-67
2023/04/30 12:05:20;;;;;;;1.10;0.88;;;;;;;;;;5039162;28;20406;-67
2023/04/30 12:07:49;;;;;;;1.30;0.57;;;;;;;;;;5038068;28;20139;-66
2023/04/30 12:10:19;;;;;;;1.27;0.95;;;;;;;;;;5037227;28;20057;-65
2023/04/30 12:12:48;;;;;;;0.90;0.75;;;;;;;;;;5041788;28;20055;-67
2023/04/30 12:15:22;;;;;;;1.52;0.77;;;;;;;;;;5036203;28;20132;-65
2023/04/30 12:17:50;;;;;;;1.15;0.80;;;;;;;;;;5039416;28;20053;-65
2023/04/30 12:20:21;;;;;;;2.20;1.15;;;;;;;;;;5036802;28;20053;-66
2023/04/30 12:22:50;;;;;;;2.25;0.65;;;;;;;;;;5040106;28;20049;-65
2023/04/30 12:25:19;;;;;;;2.35;0.90;;;;;;;;;;5038214;28;20601;-66
2023/04/30 12:27:48;;;;;;;3.92;0.90;;;;;;;;;;5040304;28;20055;-66
2023/04/30 12:30:20;;;;;;;2.13;1.02;;;;;;;;;;5039532;28;20098;-66
2023/04/30 12:32:49;;;;;;;1.00;0.60;;;;;;;;;;5038171;28;20051;-67
2023/04/30 12:35:20;;;;;;;1.08;0.80;;;;;;;;;;5040024;28;20045;-66
2023/04/30 12:37:50;;;;;;;1.35;0.70;;;;;;;;;;5039200;28;20051;-65
2023/04/30 12:40:19;;;;;;;1.60;0.93;;;;;;;;;;5038280;28;20136;-65
2023/04/30 12:42:48;;;;;;;0.93;0.73;;;;;;;;;;5037939;28;20037;-65
2023/04/30 12:45:31;;;;;;;1.98;0.82;;;;;;;;;;5036008;28;20391;-66
2023/04/30 12:48:00;;;;;;;2.50;1.17;;;;;;;;;;5038283;28;20048;-65
2023/04/30 12:50:30;;;;;;;1.50;0.90;;;;;;;;;;5037057;28;20084;-66
2023/04/30 12:53:02;;;;;;;1.52;1.00;;;;;;;;;;5041151;28;20048;-65
2023/04/30 12:55:31;;;;;;;1.25;0.70;;;;;;;;;;5038110;28;20049;-65
2023/04/30 12:58:09;;;;;;;1.67;0.82;;;;;;;;;;5041025;28;20168;-65
2023/04/30 13:00:44;;;;;;;1.08;0.75;;;;;;;;;;5036570;28;20060;-64
2023/04/30 13:03:13;;;;;;;2.90;1.00;;;;;;;;;;5035919;28;20060;-67
2023/04/30 13:05:44;;;;;;;4.72;0.90;;;;;;;;;;5036226;28;20434;-66
2023/04/30 13:08:13;;;;;;;1.20;0.60;;;;;;;;;;5034129;28;20037;-66
2023/04/30 13:10:42;;;;;;;1.15;0.57;;;;;;;;;;5036029;28;20044;-65
2023/04/30 13:13:11;;;;;;;0.95;0.77;;;;;;;;;;5037898;28;20045;-65
2023/04/30 13:15:39;;;;;;;2.40;1.00;;;;;;;;;;5036009;28;20416;-65
2023/04/30 13:18:08;;;;;;;2.60;0.80;;;;;;;;;;5035356;28;20565;-65
2023/04/30 13:20:37;;;;;;;1.60;0.80;;;;;;;;;;5033797;28;20087;-64
2023/04/30 13:23:06;;;;;;;1.95;0.80;;;;;;;;;;5038521;28;20053;-63
2023/04/30 13:25:35;;;;;;;0.68;0.52;;;;;;;;;;5039663;28;20480;-63
2023/04/30 13:28:04;;;;;;;0.98;0.60;;;;;;;;;;5037260;28;20080;-64
2023/04/30 13:30:33;;;;;;;1.27;0.80;;;;;;;;;;5033770;28;20123;-64
2023/04/30 13:33:01;;;;;;;0.80;0.47;;;;;;;;;;5034283;28;20270;-64
2023/04/30 13:35:30;;;;;;;0.98;0.80;;;;;;;;;;5033415;28;20053;-63
2023/04/30 13:37:59;;;;;;;0.88;0.80;;;;;;;;;;5037987;28;20053;-63
2023/04/30 13:40:29;;;;;;;0.90;0.52;;;;;;;;;;5032692;28;21291;-63
2023/04/30 13:42:57;;;;;;;1.02;0.60;;;;;;;;;;5035685;28;20114;-64
2023/04/30 13:45:26;;;;;;;1.58;0.77;;;;;;;;;;5035441;28;20053;-63
2023/04/30 13:47:54;;;;;;;0.43;0.43;;;;;;;;;;5039731;28;20393;-63
2023/04/30 13:50:22;;;;;;;4.38;0.80;;;;;;;;;;5034782;28;20048;-63
2023/04/30 13:52:51;;;;;;;1.40;0.77;;;;;;;;;;5036577;28;21221;-63
2023/04/30 13:55:19;;;;;;;0.98;0.68;;;;;;;;;;5032505;28;20049;-63
2023/04/30 13:57:49;;;;;;;1.63;0.55;;;;;;;;;;5039105;28;20052;-62
2023/04/30 14:00:18;;;;;;;1.30;0.73;;;;;;;;;;5038996;28;20128;-63
2023/04/30 14:02:46;;;;;;;1.20;0.60;;;;;;;;;;5038576;28;20434;-67
2023/04/30 14:05:15;;;;;;;1.08;0.68;;;;;;;;;;5033742;28;20176;-64
2023/04/30 14:07:43;;;;;;;1.05;0.68;;;;;;;;;;5032753;28;20084;-65
2023/04/30 14:10:12;;;;;;;3.17;1.02;;;;;;;;;;5035595;28;20055;-64
2023/04/30 14:12:40;;;;;;;1.80;0.63;;;;;;;;;;5033074;28;20045;-64
2023/04/30 14:15:10;;;;;;;1.17;1.08;;;;;;;;;;5035978;28;20636;-66
2023/04/30 14:17:39;;;;;;;1.73;0.85;;;;;;;;;;5033491;28;20049;-64
2023/04/30 14:20:08;;;;;;;1.17;0.73;;;;;;;;;;5037594;28;20056;-65
2023/04/30 14:22:37;;;;;;;1.50;0.60;;;;;;;;;;5034598;28;20512;-65
2023/04/30 14:25:08;;;;;;;1.02;0.73;;;;;;;;;;5036297;28;20052;-66
2023/04/30 14:27:37;;;;;;;1.13;0.80;;;;;;;;;;5036549;28;20107;-64
2023/04/30 14:30:06;;;;;;;1.63;0.70;;;;;;;;;;5035035;28;20052;-65
2023/04/30 14:32:36;;;;;;;0.55;0.50;;;;;;;;;;5036297;28;20053;-65
2023/04/30 14:35:05;;;;;;;1.40;0.80;;;;;;;;;;5036708;28;20076;-65
2023/04/30 14:37:33;;;;;;;0.95;0.63;;;;;;;;;;5034533;28;20567;-63
2023/04/30 14:40:03;;;;;;;1.83;0.82;;;;;;;;;;5038163;28;20045;-64
2023/04/30 14:42:32;;;;;;;1.10;0.60;;;;;;;;;;5035894;28;20176;-64
2023/04/30 14:45:00;;;;;;;2.70;0.55;;;;;;;;;;5036913;28;20446;-64
2023/04/30 14:47:29;;;;;;;0.88;0.70;;;;;;;;;;5034856;28;20056;-64
2023/04/30 14:50:01;;;;;;;0.60;0.60;;;;;;;;;;5036759;28;20040;-63
2023/04/30 14:52:29;;;;;;;1.27;0.82;;;;;;;;;;5036194;28;20056;-64
2023/04/30 14:54:57;;;;;;;0.80;0.55;;;;;;;;;;5032767;28;20060;-63
2023/04/30 14:57:26;;;;;;;0.93;0.70;;;;;;;;;;5038493;28;20075;-63